Time;durP1;ratioP1;P1;durP2;ratioP2;P2;SDS_P1;SDS_P2;PMS_P1;PMS_P2;Temp;Humidity;BMP_temperature;BMP_pressure;BME280_temperature;BME280_humidity;BME280_pressure;Samples;Min_cycle;Max_cycle;Signal;HPM_P1;HPM_P2
2022/05/09 00:01:24;;;;;;;16.13;4.35;;;8.00;99.90;;;;;;5090467;28;20028;-48
2022/05/09 00:03:51;;;;;;;17.58;4.60;;;8.00;99.90;;;;;;5083883;28;20516;-48
2022/05/09 00:06:16;;;;;;;19.70;4.40;;;7.90;99.90;;;;;;5085247;28;20036;-47
2022/05/09 00:08:42;;;;;;;15.75;4.55;;;7.90;99.90;;;;;;5090776;28;20105;-47
2022/05/09 00:11:09;;;;;;;18.65;5.10;;;7.90;99.90;;;;;;5086347;28;20461;-48
2022/05/09 00:13:35;;;;;;;18.42;4.88;;;7.90;99.90;;;;;;5085723;28;20133;-48
2022/05/09 00:16:01;;;;;;;14.73;4.43;;;7.90;99.90;;;;;;5089281;28;20119;-47
2022/05/09 00:18:26;;;;;;;19.52;4.57;;;7.80;99.90;;;;;;5083728;28;20115;-48
2022/05/09 00:20:52;;;;;;;15.98;4.30;;;7.90;99.90;;;;;;5085911;28;20047;-49
2022/05/09 00:23:17;;;;;;;20.17;4.65;;;7.80;99.90;;;;;;5092604;28;20067;-50
2022/05/09 00:25:43;;;;;;;16.58;4.43;;;7.80;99.90;;;;;;5083794;28;20474;-51
2022/05/09 00:28:09;;;;;;;18.20;4.90;;;7.80;99.90;;;;;;5094100;28;20102;-49
2022/05/09 00:30:34;;;;;;;14.85;4.63;;;7.80;99.90;;;;;;5077161;28;20402;-51
2022/05/09 00:33:00;;;;;;;15.35;4.57;;;7.80;99.90;;;;;;5074301;28;20094;-50
2022/05/09 00:35:25;;;;;;;15.43;4.50;;;7.80;99.90;;;;;;5078455;28;20431;-50
2022/05/09 00:37:51;;;;;;;20.60;5.25;;;7.80;99.90;;;;;;5092557;28;20036;-51
2022/05/09 00:40:17;;;;;;;13.63;4.50;;;7.80;99.90;;;;;;5094280;28;20043;-51
2022/05/09 00:42:48;;;;;;;23.83;5.07;;;7.80;99.90;;;;;;5094125;28;20123;-48
2022/05/09 00:45:15;;;;;;;16.67;4.60;;;7.80;99.90;;;;;;5080506;28;20043;-49
2022/05/09 00:47:41;;;;;;;13.18;4.50;;;7.70;99.90;;;;;;5088677;28;20032;-48
2022/05/09 00:50:10;;;;;;;19.33;4.97;;;7.60;99.90;;;;;;5093167;28;20097;-50
2022/05/09 00:52:38;;;;;;;19.25;4.78;;;7.70;99.90;;;;;;5073785;28;20487;-49
2022/05/09 00:55:41;;;;;;;18.92;5.18;;;7.60;99.90;;;;;;5084199;28;20043;-51
2022/05/09 00:58:15;;;;;;;24.10;4.90;;;7.60;99.90;;;;;;5060536;28;20484;-51
2022/05/09 01:00:45;;;;;;;19.98;4.93;;;7.50;99.90;;;;;;5093996;28;20031;-51
2022/05/09 01:03:25;;;;;;;21.08;4.88;;;7.60;99.90;;;;;;5080232;28;20208;-47
2022/05/09 01:05:51;;;;;;;19.85;5.13;;;7.50;99.90;;;;;;5090140;28;20040;-49
2022/05/09 01:08:21;;;;;;;17.80;4.72;;;7.50;99.90;;;;;;5089299;28;20085;-51
2022/05/09 01:10:48;;;;;;;23.20;5.47;;;7.50;99.90;;;;;;5093695;28;20039;-49
2022/05/09 01:13:16;;;;;;;16.98;5.35;;;7.40;99.90;;;;;;5089119;28;20036;-51
2022/05/09 01:15:45;;;;;;;17.08;5.13;;;7.40;99.90;;;;;;5087323;28;20413;-48
2022/05/09 01:18:12;;;;;;;25.13;5.57;;;7.40;99.90;;;;;;5091575;28;20482;-49
2022/05/09 01:20:38;;;;;;;15.98;4.07;;;7.30;99.90;;;;;;5079169;28;20039;-50
2022/05/09 01:23:04;;;;;;;13.77;4.80;;;7.40;99.90;;;;;;5083213;28;20127;-48
2022/05/09 01:25:31;;;;;;;17.75;5.78;;;7.50;99.90;;;;;;5086389;28;20035;-51
2022/05/09 01:27:57;;;;;;;20.67;6.00;;;7.40;99.90;;;;;;5092920;28;20039;-48
2022/05/09 01:30:31;;;;;;;14.90;5.68;;;7.30;99.90;;;;;;5095893;28;20043;-49
2022/05/09 01:33:11;;;;;;;21.27;6.03;;;7.30;99.90;;;;;;5088588;28;20101;-48
2022/05/09 01:35:49;;;;;;;15.43;5.55;;;7.30;99.90;;;;;;5087841;28;20118;-50
2022/05/09 01:38:31;;;;;;;17.80;5.60;;;7.20;99.90;;;;;;5083440;28;20040;-48
2022/05/09 01:40:57;;;;;;;21.92;5.82;;;7.20;99.90;;;;;;5087795;28;20044;-49
2022/05/09 01:43:35;;;;;;;18.13;5.10;;;7.20;99.90;;;;;;5083821;28;20028;-47
2022/05/09 01:46:03;;;;;;;22.30;6.40;;;7.30;99.90;;;;;;5092821;28;20044;-48
2022/05/09 01:51:18;;;;;;;17.55;5.35;;;7.20;99.90;;;;;;5093062;28;20589;-50
2022/05/09 01:53:49;;;;;;;20.83;5.80;;;7.20;99.90;;;;;;5083711;28;20082;-50
2022/05/09 01:56:15;;;;;;;24.23;6.22;;;7.40;99.90;;;;;;5092764;28;20032;-50
2022/05/09 01:58:41;;;;;;;19.40;6.85;;;7.20;99.90;;;;;;5081676;28;20037;-49
2022/05/09 02:01:08;;;;;;;18.35;5.30;;;7.20;99.90;;;;;;5088770;28;20046;-50
2022/05/09 02:03:33;;;;;;;14.15;5.20;;;7.20;99.90;;;;;;5081284;28;20036;-49
2022/05/09 02:06:00;;;;;;;19.23;5.47;;;7.20;99.90;;;;;;5088953;28;20048;-48
2022/05/09 02:08:25;;;;;;;22.20;6.07;;;7.20;99.90;;;;;;5083680;28;20105;-49
2022/05/09 02:10:51;;;;;;;23.90;5.93;;;7.20;99.90;;;;;;5073719;28;20044;-48
2022/05/09 02:13:16;;;;;;;21.55;5.95;;;7.20;99.90;;;;;;5087793;28;20508;-51
2022/05/09 02:15:42;;;;;;;17.45;5.00;;;7.20;99.90;;;;;;5092410;28;20028;-50
2022/05/09 02:18:07;;;;;;;17.33;5.70;;;7.10;99.90;;;;;;5092183;28;20040;-49
2022/05/09 02:20:33;;;;;;;17.23;5.55;;;7.10;99.90;;;;;;5092154;28;20036;-50
2022/05/09 02:22:59;;;;;;;23.77;5.65;;;7.10;99.90;;;;;;5090825;28;20050;-48
2022/05/09 02:25:29;;;;;;;18.27;6.00;;;7.10;99.90;;;;;;5085099;28;20036;-50
2022/05/09 02:27:57;;;;;;;21.50;6.00;;;7.00;99.90;;;;;;5088457;28;20047;-48
2022/05/09 02:30:22;;;;;;;18.58;5.40;;;7.00;99.90;;;;;;5071834;28;20043;-49
2022/05/09 02:32:48;;;;;;;20.85;6.18;;;7.00;99.90;;;;;;5081555;28;20048;-50
2022/05/09 02:35:14;;;;;;;16.83;6.30;;;6.90;99.90;;;;;;5090766;28;20519;-50
2022/05/09 02:37:39;;;;;;;19.83;6.30;;;6.90;99.90;;;;;;5091316;28;20036;-48
2022/05/09 02:40:06;;;;;;;17.90;5.68;;;6.90;99.90;;;;;;5092187;28;20497;-51
2022/05/09 02:42:31;;;;;;;20.02;6.18;;;6.90;99.90;;;;;;5092226;28;20129;-48
2022/05/09 02:44:57;;;;;;;20.75;6.05;;;6.80;99.90;;;;;;5081490;28;20115;-51
2022/05/09 02:47:26;;;;;;;22.00;6.35;;;6.90;99.90;;;;;;5090654;28;20039;-49
2022/05/09 02:49:51;;;;;;;18.52;6.88;;;6.90;99.90;;;;;;5091549;28;20116;-51
2022/05/09 02:52:17;;;;;;;19.08;5.90;;;6.80;99.90;;;;;;5091982;28;20107;-49
2022/05/09 02:54:42;;;;;;;21.33;6.38;;;6.80;99.90;;;;;;5090545;28;20039;-51
2022/05/09 02:57:08;;;;;;;22.15;6.25;;;6.80;99.90;;;;;;5091717;28;20313;-51
2022/05/09 02:59:34;;;;;;;19.70;6.45;;;6.70;99.90;;;;;;5085294;28;20036;-51
2022/05/09 03:02:01;;;;;;;21.20;6.05;;;6.80;99.90;;;;;;5087323;28;20098;-50
2022/05/09 03:04:39;;;;;;;14.95;6.53;;;6.70;99.90;;;;;;5080991;28;20043;-50
2022/05/09 03:07:06;;;;;;;23.08;6.47;;;6.70;99.90;;;;;;5091408;28;20527;-51
2022/05/09 03:09:32;;;;;;;20.73;6.97;;;6.70;99.90;;;;;;5091549;28;20425;-50
2022/05/09 03:11:58;;;;;;;27.23;7.07;;;6.70;99.90;;;;;;5088449;28;20040;-51
2022/05/09 03:14:24;;;;;;;18.15;6.45;;;6.70;99.90;;;;;;5085519;28;20040;-50
2022/05/09 03:16:50;;;;;;;18.60;6.93;;;6.70;99.90;;;;;;5091027;28;20449;-50
2022/05/09 03:19:16;;;;;;;17.65;6.38;;;6.60;99.90;;;;;;5084795;28;20037;-50
2022/05/09 03:21:42;;;;;;;18.73;7.00;;;6.60;99.90;;;;;;5079428;28;20032;-48
2022/05/09 03:24:07;;;;;;;22.38;7.30;;;6.60;99.90;;;;;;5090283;28;20090;-47
2022/05/09 03:26:34;;;;;;;23.20;7.53;;;6.50;99.90;;;;;;5091313;28;20128;-47
2022/05/09 03:29:00;;;;;;;21.70;6.75;;;6.50;99.90;;;;;;5073713;28;20094;-47
2022/05/09 03:31:26;;;;;;;23.17;7.10;;;6.50;99.90;;;;;;5071250;28;20045;-47
2022/05/09 03:33:51;;;;;;;20.52;7.40;;;6.50;99.90;;;;;;5082820;28;20040;-47
2022/05/09 03:36:17;;;;;;;21.10;7.13;;;6.50;99.90;;;;;;5088680;28;20039;-47
2022/05/09 03:38:42;;;;;;;17.90;6.70;;;6.50;99.90;;;;;;5091108;28;20059;-47
2022/05/09 03:41:08;;;;;;;21.42;6.82;;;6.60;99.90;;;;;;5091288;28;20436;-48
2022/05/09 03:43:33;;;;;;;19.23;6.30;;;6.50;99.90;;;;;;5090163;28;20086;-47
2022/05/09 03:46:00;;;;;;;21.15;7.45;;;6.50;99.90;;;;;;5090753;28;20039;-47
2022/05/09 03:48:26;;;;;;;23.55;6.90;;;6.50;99.90;;;;;;5090782;28;20119;-50
2022/05/09 03:50:52;;;;;;;21.50;6.47;;;6.50;99.90;;;;;;5086614;28;20127;-48
2022/05/09 03:53:18;;;;;;;26.38;7.28;;;6.50;99.90;;;;;;5085772;28;20072;-49
2022/05/09 03:55:44;;;;;;;25.90;8.57;;;6.50;99.90;;;;;;5090499;28;20055;-47
2022/05/09 03:58:09;;;;;;;21.45;6.90;;;6.50;99.90;;;;;;5095062;28;20509;-47
2022/05/09 04:00:35;;;;;;;25.75;7.28;;;6.50;99.90;;;;;;5094977;28;20047;-48
2022/05/09 04:03:02;;;;;;;19.40;7.10;;;6.60;99.90;;;;;;5088232;28;20040;-47
2022/05/09 04:05:32;;;;;;;25.67;6.88;;;6.50;99.90;;;;;;5094520;28;20035;-47
2022/05/09 04:07:59;;;;;;;23.73;6.88;;;6.40;99.90;;;;;;5094760;28;20044;-47
2022/05/09 04:10:29;;;;;;;17.92;7.10;;;6.40;99.90;;;;;;5087207;28;20099;-48
2022/05/09 04:12:55;;;;;;;19.02;7.07;;;6.40;99.90;;;;;;5073633;28;20613;-49
2022/05/09 04:18:05;;;;;;;20.80;8.13;;;6.40;99.90;;;;;;5081846;28;20067;-47
2022/05/09 04:20:31;;;;;;;23.65;8.10;;;6.40;99.90;;;;;;5093907;28;20028;-48
2022/05/09 04:22:59;;;;;;;20.55;7.13;;;6.30;99.90;;;;;;5093474;28;20378;-48
2022/05/09 04:25:25;;;;;;;20.30;6.88;;;6.30;99.90;;;;;;5094408;28;20075;-48
2022/05/09 04:27:51;;;;;;;21.20;6.95;;;6.30;99.90;;;;;;5089718;28;20378;-47
2022/05/09 04:30:17;;;;;;;17.42;7.20;;;6.30;99.90;;;;;;5094741;28;20036;-47
2022/05/09 04:32:43;;;;;;;21.75;7.22;;;6.40;99.90;;;;;;5089394;28;20397;-48
2022/05/09 04:35:17;;;;;;;21.77;7.30;;;6.40;99.90;;;;;;5083325;28;20038;-48
2022/05/09 04:37:47;;;;;;;29.98;8.07;;;6.30;99.90;;;;;;5085242;28;20434;-48
2022/05/09 04:40:15;;;;;;;21.65;7.55;;;6.30;99.90;;;;;;5093452;28;20481;-48
2022/05/09 04:42:40;;;;;;;30.42;7.72;;;6.30;99.90;;;;;;5091814;28;20040;-47
2022/05/09 04:45:06;;;;;;;24.75;7.72;;;6.30;99.90;;;;;;5088338;28;20497;-48
2022/05/09 04:47:32;;;;;;;17.02;7.72;;;6.40;99.90;;;;;;5093130;28;20036;-48
2022/05/09 04:49:57;;;;;;;23.33;7.63;;;6.40;99.90;;;;;;5093407;28;20036;-47
2022/05/09 04:52:23;;;;;;;28.30;7.85;;;6.40;99.90;;;;;;5088328;28;20555;-48
2022/05/09 04:54:49;;;;;;;21.38;7.05;;;6.40;99.90;;;;;;5093964;28;20130;-48
2022/05/09 04:57:15;;;;;;;18.08;7.47;;;6.50;99.90;;;;;;5090847;28;20043;-48
2022/05/09 04:59:40;;;;;;;21.50;8.35;;;6.50;99.90;;;;;;5088202;28;20040;-48
2022/05/09 05:02:06;;;;;;;21.95;7.95;;;6.60;99.90;;;;;;5079754;28;20040;-48
2022/05/09 05:04:31;;;;;;;22.27;7.50;;;6.70;99.90;;;;;;5093701;28;20063;-48
2022/05/09 05:06:57;;;;;;;24.75;7.70;;;6.70;99.90;;;;;;5093847;28;20486;-47
2022/05/09 05:09:22;;;;;;;26.83;8.60;;;6.70;99.90;;;;;;5086214;28;20093;-47
2022/05/09 05:11:49;;;;;;;22.48;7.75;;;6.70;99.90;;;;;;5087417;28;20048;-47
2022/05/09 05:14:15;;;;;;;26.58;7.85;;;6.80;99.90;;;;;;5083742;28;20115;-47
2022/05/09 05:16:59;;;;;;;19.92;8.48;;;6.90;99.90;;;;;;5079490;28;20128;-48
2022/05/09 05:19:31;;;;;;;22.85;7.82;;;6.90;99.90;;;;;;5086345;28;20044;-47
2022/05/09 05:21:57;;;;;;;24.90;8.18;;;7.00;99.90;;;;;;5093625;28;20051;-47
2022/05/09 05:24:23;;;;;;;20.33;8.32;;;7.10;99.90;;;;;;5087316;28;20083;-47
2022/05/09 05:26:49;;;;;;;15.90;7.45;;;7.10;99.90;;;;;;5080198;28;20102;-46
2022/05/09 05:29:15;;;;;;;21.08;8.02;;;7.20;99.90;;;;;;5080455;28;20032;-47
2022/05/09 05:31:41;;;;;;;25.33;7.57;;;7.30;99.90;;;;;;5088190;28;20050;-47
2022/05/09 05:34:06;;;;;;;21.60;7.65;;;7.40;99.90;;;;;;5085147;28;20387;-47
2022/05/09 05:36:31;;;;;;;19.10;7.47;;;7.50;99.90;;;;;;5082483;28;20039;-47
2022/05/09 05:38:57;;;;;;;22.17;8.10;;;7.50;99.90;;;;;;5080919;28;20086;-47
2022/05/09 05:41:23;;;;;;;24.73;7.75;;;7.60;99.90;;;;;;5080750;28;20035;-47
2022/05/09 05:43:49;;;;;;;19.98;7.28;;;7.80;99.90;;;;;;5101018;28;20082;-47
2022/05/09 05:46:14;;;;;;;23.67;7.30;;;8.40;99.90;;;;;;5112421;28;20035;-47
2022/05/09 05:48:41;;;;;;;20.25;7.40;;;9.10;99.90;;;;;;5113106;28;20081;-47
2022/05/09 05:51:06;;;;;;;22.25;6.72;;;9.60;99.90;;;;;;5087773;28;20040;-49
2022/05/09 05:53:32;;;;;;;27.05;8.98;;;10.00;99.90;;;;;;5097675;28;20043;-50
2022/05/09 05:55:57;;;;;;;26.58;7.45;;;10.00;99.90;;;;;;5090258;28;20039;-50
2022/05/09 05:58:25;;;;;;;20.25;6.65;;;9.90;99.90;;;;;;5088018;28;20157;-50
2022/05/09 06:00:51;;;;;;;19.98;7.05;;;9.70;99.90;;;;;;5092006;28;20109;-47
2022/05/09 06:03:16;;;;;;;18.95;7.43;;;9.70;99.90;;;;;;5092700;28;20130;-48
2022/05/09 06:05:42;;;;;;;19.25;7.43;;;9.70;99.90;;;;;;5092491;28;20124;-50
2022/05/09 06:08:08;;;;;;;24.40;8.43;;;10.00;99.90;;;;;;5085946;28;20047;-48
2022/05/09 06:10:34;;;;;;;19.52;7.22;;;10.60;99.90;;;;;;5092692;28;20032;-50
2022/05/09 06:13:04;;;;;;;17.98;6.88;;;11.00;99.90;;;;;;5091679;28;20047;-50
2022/05/09 06:15:33;;;;;;;20.42;7.03;;;11.20;99.90;;;;;;5092459;28;20409;-48
2022/05/09 06:18:01;;;;;;;24.60;8.20;;;11.00;99.90;;;;;;5092102;28;20032;-51
2022/05/09 06:20:30;;;;;;;23.05;7.85;;;10.70;99.90;;;;;;5087070;28;20035;-49
2022/05/09 06:22:56;;;;;;;25.08;7.82;;;10.60;99.90;;;;;;5060004;28;20056;-49
2022/05/09 06:25:22;;;;;;;27.63;8.05;;;10.40;99.90;;;;;;5078894;28;20443;-50
2022/05/09 06:27:48;;;;;;;20.27;8.38;;;10.30;99.90;;;;;;5085659;28;20591;-50
2022/05/09 06:30:16;;;;;;;29.80;8.80;;;10.40;99.90;;;;;;5088338;28;20036;-48
2022/05/09 06:32:42;;;;;;;22.67;7.75;;;10.30;99.90;;;;;;5080275;28;20033;-49
2022/05/09 06:35:11;;;;;;;23.40;7.97;;;10.40;99.90;;;;;;5087744;28;20482;-48
2022/05/09 06:37:38;;;;;;;26.23;8.40;;;10.40;99.90;;;;;;5082120;28;20036;-52
2022/05/09 06:40:05;;;;;;;23.70;8.07;;;10.50;99.90;;;;;;5087716;28;20140;-51
2022/05/09 06:42:31;;;;;;;17.52;7.97;;;10.60;99.90;;;;;;5084935;28;20036;-51
2022/05/09 06:44:56;;;;;;;23.27;8.02;;;10.70;99.90;;;;;;5085677;28;20081;-49
2022/05/09 06:47:22;;;;;;;18.33;6.78;;;10.80;99.90;;;;;;5087221;27;20040;-50
2022/05/09 06:49:48;;;;;;;20.25;7.25;;;10.90;99.90;;;;;;5081666;28;20664;-50
2022/05/09 06:52:14;;;;;;;23.60;7.22;;;11.00;99.90;;;;;;5084221;28;20039;-47
2022/05/09 06:54:39;;;;;;;21.33;6.90;;;11.00;99.90;;;;;;5092564;28;20123;-49
2022/05/09 06:57:05;;;;;;;19.52;7.30;;;11.10;99.90;;;;;;5090610;28;20048;-48
2022/05/09 06:59:32;;;;;;;21.80;7.68;;;11.20;99.90;;;;;;5081871;28;20039;-48
2022/05/09 07:01:58;;;;;;;18.17;7.05;;;11.20;99.90;;;;;;5086859;28;20040;-48
2022/05/09 07:04:24;;;;;;;18.38;7.35;;;11.30;99.90;;;;;;5085241;28;20062;-48
2022/05/09 07:06:49;;;;;;;27.02;6.72;;;11.40;99.90;;;;;;5082986;28;20047;-47
2022/05/09 07:09:15;;;;;;;18.75;6.45;;;11.50;99.90;;;;;;5077693;28;20036;-47
2022/05/09 07:11:42;;;;;;;21.77;8.02;;;11.70;99.90;;;;;;5080936;28;20482;-47
2022/05/09 07:14:08;;;;;;;16.65;7.57;;;11.80;99.90;;;;;;5098355;28;20078;-47
2022/05/09 07:16:35;;;;;;;19.48;7.20;;;12.00;99.90;;;;;;5090909;28;20558;-48
2022/05/09 07:19:01;;;;;;;19.05;7.05;;;12.10;99.90;;;;;;5083585;28;20046;-48
2022/05/09 07:21:27;;;;;;;20.00;6.82;;;12.30;99.90;;;;;;5088938;28;20119;-48
2022/05/09 07:23:53;;;;;;;22.75;7.25;;;12.40;99.90;;;;;;5090975;28;20131;-48
2022/05/09 07:26:18;;;;;;;22.15;7.45;;;12.50;99.90;;;;;;5091675;28;20126;-48
2022/05/09 07:28:44;;;;;;;16.85;7.47;;;12.70;99.90;;;;;;5091166;28;20048;-50
2022/05/09 07:31:10;;;;;;;23.38;7.85;;;12.80;99.90;;;;;;5088285;28;20521;-48
2022/05/09 07:33:36;;;;;;;24.65;7.78;;;13.00;99.90;;;;;;5085849;28;20252;-48
2022/05/09 07:36:03;;;;;;;21.92;7.45;;;13.20;99.90;;;;;;5091261;28;20071;-48
2022/05/09 07:38:29;;;;;;;17.63;6.60;;;13.40;99.90;;;;;;5091097;28;20548;-49
2022/05/09 07:40:55;;;;;;;18.48;6.88;;;13.50;99.90;;;;;;5091462;28;20040;-50
2022/05/09 07:43:24;;;;;;;21.50;6.78;;;13.70;99.90;;;;;;5091336;28;20051;-48
2022/05/09 07:45:52;;;;;;;19.05;6.53;;;13.80;99.90;;;;;;5083016;28;20372;-49
2022/05/09 07:48:21;;;;;;;26.13;7.40;;;14.00;99.90;;;;;;5083030;28;20039;-48
2022/05/09 07:50:48;;;;;;;17.30;6.47;;;14.10;99.90;;;;;;5091608;28;20048;-49
2022/05/09 07:53:33;;;;;;;22.70;8.02;;;14.20;99.90;;;;;;5091009;28;20047;-50
2022/05/09 07:56:00;;;;;;;18.67;6.40;;;14.40;99.90;;;;;;5086945;28;20066;-51
2022/05/09 07:58:26;;;;;;;19.00;6.03;;;14.50;99.90;;;;;;5094604;28;20032;-52
2022/05/09 08:00:58;;;;;;;18.15;5.70;;;14.70;99.90;;;;;;5095968;28;20032;-53
2022/05/09 08:03:24;;;;;;;;;;;14.80;99.90;;;;;;5096003;28;20044;-53
2022/05/09 08:05:50;;;;;;;16.35;6.03;;;14.80;99.30;;;;;;5093502;28;19916;-52
2022/05/09 08:08:17;;;;;;;18.00;5.70;;;14.90;99.90;;;;;;5094175;28;20069;-52
2022/05/09 08:10:43;;;;;;;17.70;5.35;;;15.00;99.90;;;;;;5081115;28;20043;-53
2022/05/09 08:13:11;;;;;;;11.73;5.35;;;15.20;99.90;;;;;;5093383;28;20054;-53
2022/05/09 08:15:37;;;;;;;12.95;5.05;;;15.30;98.80;;;;;;5092317;28;20417;-52
2022/05/09 08:18:03;;;;;;;19.00;5.40;;;15.40;99.10;;;;;;5091557;28;20058;-53
2022/05/09 08:20:30;;;;;;;20.90;5.93;;;15.50;98.00;;;;;;5090015;28;20036;-51
2022/05/09 08:23:11;;;;;;;25.73;5.53;;;15.60;97.40;;;;;;5087143;28;20048;-53
2022/05/09 08:25:41;;;;;;;16.88;4.93;;;15.80;96.90;;;;;;5084968;28;20131;-51
2022/05/09 08:28:07;;;;;;;21.05;5.38;;;15.90;96.90;;;;;;5090974;28;20044;-53
2022/05/09 08:30:34;;;;;;;15.68;5.32;;;16.00;95.90;;;;;;5091016;28;20036;-53
2022/05/09 08:33:06;;;;;;;14.15;5.07;;;16.10;95.70;;;;;;5089783;28;20123;-53
2022/05/09 08:35:32;;;;;;;15.50;5.00;;;16.30;95.80;;;;;;5085806;28;20106;-50
2022/05/09 08:37:57;;;;;;;13.98;5.05;;;16.40;95.00;;;;;;5087582;28;20032;-51
2022/05/09 08:40:49;;;;;;;13.93;4.53;;;16.60;95.10;;;;;;5088773;28;20409;-52
2022/05/09 08:43:27;;;;;;;16.85;5.00;;;16.70;92.80;;;;;;5085593;28;20409;-51
2022/05/09 08:46:10;;;;;;;13.90;4.97;;;16.70;92.40;;;;;;5093977;28;20040;-51
2022/05/09 08:49:05;;;;;;;13.80;4.85;;;16.80;90.90;;;;;;5094138;28;20375;-49
2022/05/09 08:52:01;;;;;;;17.60;4.50;;;16.80;91.30;;;;;;5090721;28;20131;-53
2022/05/09 08:54:27;;;;;;;13.32;4.57;;;16.80;88.10;;;;;;5087058;28;20086;-51
2022/05/09 08:56:58;;;;;;;10.60;4.05;;;17.00;85.40;;;;;;5094298;28;20032;-52
2022/05/09 08:59:30;;;;;;;15.75;4.60;;;17.20;87.60;;;;;;5093970;28;20485;-52
2022/05/09 09:02:06;;;;;;;13.43;4.15;;;17.40;85.80;;;;;;5094226;28;20115;-52
2022/05/09 09:04:34;;;;;;;16.85;4.80;;;17.50;83.90;;;;;;5092692;28;20391;-52
2022/05/09 09:07:22;;;;;;;12.70;3.88;;;17.60;83.60;;;;;;5087315;28;20040;-51
2022/05/09 09:09:56;;;;;;;11.98;3.83;;;17.70;80.00;;;;;;5094101;28;20082;-50
2022/05/09 09:13:00;;;;;;;16.33;3.50;;;17.80;75.20;;;;;;5089222;28;20052;-52
2022/05/09 09:16:12;;;;;;;12.55;3.15;;;17.90;76.10;;;;;;5085303;28;20513;-50
2022/05/09 09:19:09;;;;;;;14.13;3.30;;;18.00;71.80;;;;;;5073317;28;20048;-51
2022/05/09 09:21:47;;;;;;;15.10;3.60;;;18.10;69.10;;;;;;5073663;28;20114;-51
2022/05/09 09:24:31;;;;;;;15.45;3.60;;;18.20;67.40;;;;;;5073559;28;20043;-53
2022/05/09 09:27:16;;;;;;;10.98;3.40;;;18.30;68.70;;;;;;5072837;28;20047;-54
2022/05/09 09:29:48;;;;;;;12.88;3.20;;;18.40;69.10;;;;;;5088369;28;20036;-52
2022/05/09 09:32:20;;;;;;;12.50;3.50;;;18.60;67.10;;;;;;5093589;28;20402;-52
2022/05/09 09:34:54;;;;;;;8.57;3.43;;;18.80;65.80;;;;;;5093328;28;20043;-52
2022/05/09 09:37:21;;;;;;;11.95;3.63;;;18.90;63.30;;;;;;5085381;28;20269;-53
2022/05/09 09:39:47;;;;;;;18.45;3.60;;;18.90;64.60;;;;;;5093331;28;20043;-52
2022/05/09 09:42:12;;;;;;;10.63;3.42;;;18.90;62.20;;;;;;5084646;28;20039;-52
2022/05/09 09:44:43;;;;;;;11.60;3.47;;;18.90;62.30;;;;;;5091717;28;20560;-51
2022/05/09 09:47:20;;;;;;;9.77;3.33;;;18.90;63.00;;;;;;5092965;28;20048;-52
2022/05/09 09:50:09;;;;;;;11.45;3.55;;;19.00;62.20;;;;;;5093187;28;20044;-49
2022/05/09 09:53:01;;;;;;;10.93;3.65;;;19.00;61.10;;;;;;5092948;28;20040;-51
2022/05/09 09:55:37;;;;;;;10.48;3.55;;;19.30;62.30;;;;;;5086953;28;20060;-53
2022/05/09 09:58:26;;;;;;;11.65;4.15;;;19.30;62.40;;;;;;5090919;28;20040;-50
2022/05/09 10:01:13;;;;;;;11.68;3.38;;;19.50;61.80;;;;;;5092725;28;20032;-51
2022/05/09 10:03:43;;;;;;;13.88;4.15;;;19.60;61.50;;;;;;5093060;28;20401;-52
2022/05/09 10:06:26;;;;;;;10.13;3.70;;;19.60;60.50;;;;;;5092668;28;20040;-49
2022/05/09 10:09:02;;;;;;;10.25;3.42;;;19.60;62.40;;;;;;5092631;28;20067;-49
2022/05/09 10:11:29;;;;;;;11.40;3.40;;;19.60;60.10;;;;;;5090436;28;20081;-49
2022/05/09 10:13:57;;;;;;;12.70;3.30;;;19.80;60.10;;;;;;5090043;28;20036;-49
2022/05/09 10:16:37;;;;;;;12.40;3.60;;;19.90;59.30;;;;;;5092636;28;20043;-49
2022/05/09 10:19:09;;;;;;;12.13;3.20;;;20.00;58.40;;;;;;5092329;28;20541;-49
2022/05/09 10:27:22;;;;;;;13.60;3.78;;;20.40;57.40;;;;;;5092272;28;20101;-49
2022/05/09 10:30:30;;;;;;;18.45;4.88;;;20.50;58.10;;;;;;5092433;28;20047;-49
2022/05/09 10:33:17;;;;;;;8.00;3.25;;;20.50;57.30;;;;;;5092369;28;20066;-49
2022/05/09 10:35:53;;;;;;;8.38;3.30;;;20.60;57.40;;;;;;5085640;28;20105;-49
2022/05/09 10:38:40;;;;;;;12.07;3.25;;;20.60;56.40;;;;;;5083791;28;20032;-49
2022/05/09 10:41:13;;;;;;;12.80;3.78;;;20.70;55.80;;;;;;5092394;28;20047;-50
2022/05/09 10:43:50;;;;;;;12.32;3.75;;;20.70;56.50;;;;;;5092250;28;20048;-49
2022/05/09 10:46:18;;;;;;;10.85;3.47;;;20.80;53.20;;;;;;5092051;28;20044;-49
2022/05/09 10:49:01;;;;;;;10.68;3.47;;;20.80;55.00;;;;;;5091726;28;20103;-51
2022/05/09 10:51:39;;;;;;;11.85;3.55;;;20.80;55.70;;;;;;5084224;28;20533;-49
2022/05/09 10:54:29;;;;;;;14.00;3.97;;;21.00;55.30;;;;;;5091972;28;20036;-49
2022/05/09 10:57:09;;;;;;;9.05;3.80;;;21.00;53.20;;;;;;5091930;28;20040;-49
2022/05/09 10:59:41;;;;;;;12.85;4.20;;;21.10;52.90;;;;;;5091639;28;20509;-50
2022/05/09 11:02:24;;;;;;;8.77;3.85;;;21.00;54.00;;;;;;5092121;28;20118;-49
2022/05/09 11:04:50;;;;;;;10.75;3.20;;;20.80;53.50;;;;;;5083446;28;20047;-50
2022/05/09 11:07:43;;;;;;;14.43;3.47;;;20.80;54.60;;;;;;5092852;22;20036;-48
2022/05/09 11:10:26;;;;;;;9.77;2.80;;;20.90;55.90;;;;;;5068014;28;20528;-52
2022/05/09 11:13:23;;;;;;;9.93;3.25;;;21.10;54.90;;;;;;5071478;28;20040;-49
2022/05/09 11:16:10;;;;;;;8.77;3.25;;;21.30;54.60;;;;;;5062911;28;20044;-49
2022/05/09 11:18:50;;;;;;;11.63;3.17;;;21.30;54.10;;;;;;5050215;28;20161;-48
2022/05/09 11:21:47;;;;;;;12.15;3.58;;;21.40;55.10;;;;;;5050122;28;20073;-50
2022/05/09 11:24:46;;;;;;;13.48;3.75;;;21.50;55.10;;;;;;5031728;28;20167;-48
2022/05/09 11:27:47;;;;;;;11.30;3.35;;;21.50;54.20;;;;;;5013701;28;20056;-50
2022/05/09 11:30:36;;;;;;;13.43;4.05;;;21.60;53.10;;;;;;5017984;28;20136;-52
2022/05/09 11:33:21;;;;;;;11.75;3.60;;;21.60;51.70;;;;;;5031241;28;20580;-53
2022/05/09 11:35:50;;;;;;;12.90;3.70;;;21.60;54.50;;;;;;5044065;28;20066;-51
2022/05/09 11:38:30;;;;;;;10.88;3.22;;;21.50;53.70;;;;;;5042798;28;20041;-50
2022/05/09 11:41:26;;;;;;;9.73;3.40;;;21.50;52.80;;;;;;5049851;28;20048;-53
2022/05/09 11:44:11;;;;;;;9.82;3.00;;;21.50;51.20;;;;;;5042928;28;20052;-53
2022/05/09 11:46:59;;;;;;;9.57;2.90;;;21.60;53.10;;;;;;5051147;28;20041;-51
2022/05/09 11:49:38;;;;;;;10.13;2.70;;;21.70;51.90;;;;;;5049609;28;20032;-53
2022/05/09 11:52:18;;;;;;;8.93;2.58;;;21.80;51.70;;;;;;5042836;28;20124;-53
2022/05/09 11:54:48;;;;;;;6.47;2.95;;;21.90;49.40;;;;;;5051144;28;20405;-54
2022/05/09 11:57:34;;;;;;;8.15;2.83;;;21.80;49.50;;;;;;5050844;28;20041;-50
2022/05/09 12:00:05;;;;;;;8.35;2.58;;;21.90;50.20;;;;;;5051144;28;20435;-54
2022/05/09 12:02:54;;;;;;;10.53;3.20;;;21.80;50.90;;;;;;5051228;28;20037;-50
2022/05/09 12:05:31;;;;;;;11.63;2.90;;;21.90;52.00;;;;;;5045274;28;20034;-51
2022/05/09 12:08:05;;;;;;;8.75;2.85;;;22.00;52.00;;;;;;5030498;28;20435;-49
2022/05/09 12:10:35;;;;;;;7.43;3.05;;;22.10;51.20;;;;;;5034587;28;20200;-53
2022/05/09 12:13:04;;;;;;;6.63;2.58;;;22.10;50.60;;;;;;5034919;28;20037;-53
2022/05/09 12:15:29;;;;;;;7.13;2.70;;;22.10;51.00;;;;;;5034885;28;20336;-52
2022/05/09 12:17:57;;;;;;;9.38;2.40;;;22.20;51.80;;;;;;5040086;28;20104;-53
2022/05/09 12:20:29;;;;;;;11.02;2.88;;;22.30;52.00;;;;;;5050560;28;20041;-50
2022/05/09 12:22:56;;;;;;;5.68;2.28;;;22.30;51.90;;;;;;5034929;28;20041;-53
2022/05/09 12:25:39;;;;;;;7.35;2.55;;;22.50;51.60;;;;;;5034798;28;20038;-51
2022/05/09 12:28:19;;;;;;;11.50;2.55;;;22.50;49.30;;;;;;5033997;28;20038;-50
2022/05/09 12:30:49;;;;;;;6.53;2.55;;;22.40;49.20;;;;;;5034669;28;20052;-52
2022/05/09 12:33:23;;;;;;;8.45;2.88;;;22.40;48.70;;;;;;5045225;28;20517;-52
2022/05/09 12:35:52;;;;;;;9.48;2.78;;;22.40;48.90;;;;;;5046301;28;20598;-53
2022/05/09 12:38:26;;;;;;;7.00;3.10;;;22.50;50.00;;;;;;5034283;28;20033;-51
2022/05/09 12:41:13;;;;;;;17.80;3.65;;;22.40;50.70;;;;;;5034480;28;20384;-53
2022/05/09 12:43:53;;;;;;;12.63;3.08;;;22.40;50.60;;;;;;5034467;28;20037;-53
2022/05/09 12:46:23;;;;;;;8.18;2.75;;;22.40;50.70;;;;;;5037378;28;20116;-50
2022/05/09 12:48:50;;;;;;;7.63;2.90;;;22.30;50.00;;;;;;5053858;28;20045;-53
2022/05/09 12:51:16;;;;;;;8.93;2.90;;;22.30;50.10;;;;;;5034219;28;20064;-51
2022/05/09 12:53:42;;;;;;;10.57;3.05;;;22.40;46.70;;;;;;5035067;28;20045;-50
2022/05/09 12:56:21;;;;;;;8.60;3.05;;;22.40;49.00;;;;;;5046024;28;20045;-54
2022/05/09 12:58:59;;;;;;;8.07;2.58;;;22.40;49.50;;;;;;5046330;28;20432;-52
2022/05/09 13:01:27;;;;;;;8.52;2.63;;;22.50;50.70;;;;;;5040615;28;20112;-50
2022/05/09 13:04:02;;;;;;;9.48;3.30;;;22.70;50.90;;;;;;5048770;28;20041;-51
2022/05/09 13:06:31;;;;;;;15.30;3.50;;;22.80;48.90;;;;;;5044854;28;20045;-50
2022/05/09 13:08:57;;;;;;;13.35;3.35;;;22.90;48.50;;;;;;5031756;28;20060;-52
2022/05/09 13:11:26;;;;;;;13.35;3.25;;;22.90;47.60;;;;;;5051700;28;20051;-50
2022/05/09 13:14:08;;;;;;;8.98;3.20;;;22.90;45.80;;;;;;5044988;28;20518;-51